createdAt,value
2023-03-30T00:01:02.226Z,8.30
2023-03-30T00:03:29.542Z,8.30
2023-03-30T00:05:57.048Z,8.30
2023-03-30T00:08:27.977Z,8.30
2023-03-30T00:11:05.642Z,8.30
2023-03-30T00:13:34.886Z,8.50
2023-03-30T00:16:02.384Z,8.50
2023-03-30T00:18:31.977Z,9.20
2023-03-30T00:20:58.767Z,9.70
2023-03-30T00:23:27.007Z,10.40
2023-03-30T00:28:21.240Z,11.10
2023-03-30T00:30:49.045Z,11.30
2023-03-30T00:33:16.056Z,11.50
2023-03-30T00:35:42.786Z,11.60
2023-03-30T00:38:09.542Z,11.70
2023-03-30T00:40:36.674Z,11.70
2023-03-30T00:43:09.153Z,11.70
2023-03-30T00:45:37.294Z,11.70
2023-03-30T00:48:22.097Z,11.70
2023-03-30T00:50:54.007Z,11.80
2023-03-30T00:53:25.415Z,11.80
2023-03-30T00:55:54.158Z,11.80
2023-03-30T00:58:22.635Z,11.80
2023-03-30T01:00:49.983Z,11.80
2023-03-30T01:03:23.363Z,11.80
2023-03-30T01:05:52.167Z,11.70
2023-03-30T01:08:20.396Z,11.80
2023-03-30T01:10:48.075Z,11.80
2023-03-30T01:13:15.324Z,11.80
2023-03-30T01:16:13.305Z,11.80
2023-03-30T01:18:54.657Z,11.80
2023-03-30T01:21:23.931Z,11.80
2023-03-30T01:24:42.777Z,11.70
2023-03-30T01:27:45.988Z,11.70
2023-03-30T01:30:37.424Z,11.80
2023-03-30T01:33:19.256Z,11.90
2023-03-30T01:36:17.887Z,11.90
2023-03-30T01:38:44.644Z,11.80
2023-03-30T01:41:33.998Z,11.80
2023-03-30T01:44:25.195Z,11.80
2023-03-30T01:47:14.676Z,11.90
2023-03-30T01:50:01.745Z,11.80
2023-03-30T01:52:53.775Z,11.80
2023-03-30T01:55:27.238Z,11.80
2023-03-30T01:58:02.114Z,11.70
2023-03-30T02:00:29.828Z,11.70
2023-03-30T02:03:02.647Z,11.80
2023-03-30T02:05:32.791Z,11.90
2023-03-30T02:08:06.747Z,11.90
2023-03-30T02:10:35.709Z,11.90
2023-03-30T02:13:04.696Z,12.00
2023-03-30T02:15:39.694Z,12.10
2023-03-30T02:18:06.537Z,12.00
2023-03-30T02:20:34.821Z,12.00
2023-03-30T02:23:03.570Z,12.00
2023-03-30T02:25:30.265Z,11.90
2023-03-30T02:27:57.141Z,12.00
2023-03-30T02:30:24.020Z,12.00
2023-03-30T02:32:54.983Z,12.00
2023-03-30T02:35:24.436Z,12.00
2023-03-30T02:38:14.362Z,12.00
2023-03-30T02:40:56.143Z,12.00
2023-03-30T02:43:23.253Z,12.00
2023-03-30T02:45:58.256Z,12.10
2023-03-30T02:48:27.824Z,12.10
2023-03-30T02:51:12.472Z,12.10
2023-03-30T02:53:48.148Z,12.20
2023-03-30T02:56:14.782Z,12.20
2023-03-30T02:58:49.425Z,12.20
2023-03-30T03:01:34.134Z,12.20
2023-03-30T03:04:03.253Z,12.20
2023-03-30T03:06:32.266Z,12.20
2023-03-30T03:08:59.825Z,12.20
2023-03-30T03:11:27.148Z,12.30
2023-03-30T03:13:53.894Z,12.20
2023-03-30T03:16:20.744Z,12.10
2023-03-30T03:18:47.539Z,12.10
2023-03-30T03:21:14.467Z,12.20
2023-03-30T03:26:09.589Z,12.10
2023-03-30T03:28:36.279Z,12.00
2023-03-30T03:31:04.038Z,12.00
2023-03-30T03:33:33.991Z,12.00
2023-03-30T03:36:01.009Z,12.00
2023-03-30T03:38:28.763Z,12.00
2023-03-30T03:40:58.214Z,12.10
2023-03-30T03:43:26.058Z,12.10
2023-03-30T03:45:53.647Z,12.10
2023-03-30T03:48:22.794Z,12.20
2023-03-30T03:50:51.679Z,12.30
2023-03-30T03:53:18.561Z,12.30
2023-03-30T03:55:46.722Z,12.40
2023-03-30T03:58:14.840Z,12.30
2023-03-30T04:00:41.775Z,12.40
2023-03-30T04:03:09.096Z,12.40
2023-03-30T04:08:03.420Z,12.30
2023-03-30T04:10:30.534Z,12.30
2023-03-30T04:12:58.183Z,12.20
2023-03-30T04:15:25.449Z,12.30
2023-03-30T04:20:29.406Z,12.20
2023-03-30T04:22:56.976Z,12.30
2023-03-30T04:25:28.986Z,12.20
2023-03-30T04:27:57.086Z,12.20
2023-03-30T04:30:24.461Z,12.10
2023-03-30T04:33:03.905Z,12.20
2023-03-30T04:35:32.439Z,12.10
2023-03-30T04:38:00.089Z,12.10
2023-03-30T04:40:26.927Z,12.20
2023-03-30T04:42:54.201Z,12.30
2023-03-30T04:45:21.054Z,12.20
2023-03-30T04:47:47.931Z,12.20
2023-03-30T04:50:14.807Z,12.20
2023-03-30T04:52:41.573Z,12.20
2023-03-30T04:55:09.896Z,12.10
2023-03-30T04:57:36.678Z,12.10
2023-03-30T05:00:07.874Z,12.10
2023-03-30T05:02:34.811Z,12.10
2023-03-30T05:05:01.911Z,12.10
2023-03-30T05:07:28.654Z,12.10
2023-03-30T05:12:22.479Z,12.10
2023-03-30T05:14:49.208Z,12.10
2023-03-30T05:17:16.121Z,12.20
2023-03-30T05:19:42.887Z,12.40
2023-03-30T05:22:09.687Z,12.60
2023-03-30T05:24:36.410Z,12.80
2023-03-30T05:27:05.038Z,13.10
2023-03-30T05:29:31.957Z,13.20
2023-03-30T05:31:59.122Z,13.40
2023-03-30T05:34:26.088Z,13.40
2023-03-30T05:36:53.146Z,13.30
2023-03-30T05:39:20.273Z,13.30
2023-03-30T05:41:46.948Z,13.40
2023-03-30T05:44:13.716Z,13.40
2023-03-30T05:46:40.542Z,13.50
2023-03-30T05:49:07.262Z,13.50
2023-03-30T05:54:01.475Z,13.30
2023-03-30T05:56:28.264Z,13.30
2023-03-30T05:58:55.038Z,13.20
2023-03-30T06:01:21.882Z,13.20
2023-03-30T06:03:48.902Z,13.20
2023-03-30T06:06:16.505Z,13.10
2023-03-30T06:08:43.312Z,13.10
2023-03-30T06:11:11.263Z,13.10
2023-03-30T06:13:37.978Z,13.10
2023-03-30T06:16:04.916Z,13.10
2023-03-30T06:18:31.642Z,13.10
2023-03-30T06:20:58.390Z,13.10
2023-03-30T06:23:25.070Z,13.20
2023-03-30T06:25:55.518Z,13.10
2023-03-30T06:28:25.379Z,13.10
2023-03-30T06:30:52.160Z,13.00
2023-03-30T06:33:19.244Z,13.00
2023-03-30T06:35:51.129Z,13.00
2023-03-30T06:38:19.209Z,13.10
2023-03-30T06:40:45.970Z,13.20
2023-03-30T06:43:21.049Z,13.30
2023-03-30T06:45:52.657Z,13.30
2023-03-30T06:48:20.538Z,13.40
2023-03-30T06:50:47.530Z,13.40
2023-03-30T06:53:14.271Z,13.60
2023-03-30T06:55:42.599Z,13.90
2023-03-30T06:58:09.821Z,14.00
2023-03-30T07:00:37.218Z,14.00
2023-03-30T07:03:04.206Z,13.90
2023-03-30T07:05:31.210Z,13.90
2023-03-30T07:07:58.300Z,13.80
2023-03-30T07:10:25.782Z,13.80
2023-03-30T07:12:52.614Z,13.90
2023-03-30T07:15:19.392Z,13.90
2023-03-30T07:17:46.266Z,13.90
2023-03-30T07:20:15.641Z,13.90
2023-03-30T07:22:42.647Z,14.00
2023-03-30T07:25:10.899Z,14.00
2023-03-30T07:27:38.103Z,14.10
2023-03-30T07:30:17.987Z,14.10
2023-03-30T07:32:50.437Z,14.10
2023-03-30T07:35:17.491Z,14.10
2023-03-30T07:37:44.348Z,14.10
2023-03-30T07:40:11.933Z,14.10
2023-03-30T07:42:38.777Z,14.10
2023-03-30T07:45:05.995Z,14.10
2023-03-30T07:47:32.770Z,14.20
2023-03-30T07:49:59.476Z,14.30
2023-03-30T07:52:26.385Z,14.40
2023-03-30T07:54:54.790Z,14.40
2023-03-30T07:57:22.722Z,14.40
2023-03-30T07:59:49.668Z,14.40
2023-03-30T08:02:17.433Z,14.50
2023-03-30T08:04:44.707Z,14.50
2023-03-30T08:07:12.144Z,14.60
2023-03-30T08:09:38.906Z,14.60
2023-03-30T08:12:06.828Z,14.70
2023-03-30T08:14:33.590Z,14.70
2023-03-30T08:17:00.623Z,14.80
2023-03-30T08:19:28.591Z,14.90
2023-03-30T08:21:57.003Z,14.90
2023-03-30T08:24:23.938Z,15.00
2023-03-30T08:26:50.972Z,14.80
2023-03-30T08:29:18.788Z,14.90
2023-03-30T08:31:45.785Z,15.00
2023-03-30T08:34:12.847Z,15.00
2023-03-30T08:36:39.661Z,14.90
2023-03-30T08:39:06.509Z,14.90
2023-03-30T08:42:06.856Z,14.70
2023-03-30T08:44:35.318Z,14.50
2023-03-30T08:47:05.528Z,14.10
2023-03-30T08:49:53.257Z,13.80
2023-03-30T08:52:24.111Z,13.60
2023-03-30T08:54:52.132Z,13.50
2023-03-30T08:57:51.849Z,13.40
2023-03-30T09:00:30.165Z,13.50
2023-03-30T09:03:17.259Z,13.60
2023-03-30T09:06:10.949Z,13.60
2023-03-30T09:08:38.433Z,13.70
2023-03-30T09:11:12.718Z,13.70
2023-03-30T09:13:41.581Z,13.60
2023-03-30T09:16:33.050Z,13.60
2023-03-30T09:19:03.137Z,13.60
2023-03-30T09:21:31.956Z,13.60
2023-03-30T09:24:00.969Z,13.50
2023-03-30T09:26:52.423Z,13.30
2023-03-30T09:29:26.269Z,13.00
2023-03-30T09:32:40.778Z,12.80
2023-03-30T09:35:15.531Z,12.60
2023-03-30T09:37:42.567Z,12.50
2023-03-30T09:40:34.331Z,12.40
2023-03-30T09:43:25.272Z,12.30
2023-03-30T09:45:52.519Z,12.20
2023-03-30T09:48:19.320Z,12.00
2023-03-30T09:50:46.841Z,12.00
2023-03-30T09:53:29.382Z,12.00
2023-03-30T09:56:07.165Z,11.90
2023-03-30T09:58:34.790Z,11.90
2023-03-30T10:01:14.392Z,12.00
2023-03-30T10:03:43.422Z,12.00
2023-03-30T10:06:16.730Z,12.10
2023-03-30T10:08:53.112Z,12.10
2023-03-30T10:11:22.843Z,12.30
2023-03-30T10:13:51.639Z,12.80
2023-03-30T10:16:29.552Z,13.50
2023-03-30T10:19:01.344Z,13.90
2023-03-30T10:21:36.845Z,14.10
2023-03-30T10:24:08.493Z,14.70
2023-03-30T10:26:37.350Z,14.90
2023-03-30T10:29:07.381Z,15.10
2023-03-30T10:31:36.907Z,14.80
2023-03-30T10:34:06.829Z,14.90
2023-03-30T10:36:38.432Z,14.90
2023-03-30T10:39:30.060Z,15.00
2023-03-30T10:42:00.068Z,15.00
2023-03-30T10:44:34.166Z,15.00
2023-03-30T10:47:22.727Z,15.20
2023-03-30T10:49:56.136Z,15.30
2023-03-30T10:52:36.616Z,15.40
2023-03-30T10:55:12.188Z,15.30
2023-03-30T10:58:14.134Z,15.20
2023-03-30T11:01:06.916Z,15.10
2023-03-30T11:03:36.445Z,15.50
2023-03-30T11:06:25.326Z,15.50
2023-03-30T11:08:54.592Z,15.70
2023-03-30T11:11:39.661Z,15.80
2023-03-30T11:14:26.865Z,16.10
2023-03-30T11:17:01.222Z,16.10
2023-03-30T11:19:43.853Z,15.90
2023-03-30T11:22:35.362Z,15.50
2023-03-30T11:25:09.501Z,15.10
2023-03-30T11:27:46.077Z,15.10
2023-03-30T11:30:29.298Z,15.20
2023-03-30T11:33:16.103Z,15.10
2023-03-30T11:36:00.442Z,14.90
2023-03-30T11:38:43.133Z,14.80
2023-03-30T11:41:28.601Z,14.90
2023-03-30T11:43:56.218Z,15.20
2023-03-30T11:46:53.813Z,15.10
2023-03-30T11:49:32.558Z,15.10
2023-03-30T11:52:17.352Z,14.90
2023-03-30T11:55:17.353Z,14.70
2023-03-30T11:58:06.937Z,14.70
2023-03-30T12:00:36.516Z,14.70
2023-03-30T12:03:21.369Z,14.70
2023-03-30T12:06:13.908Z,14.80
2023-03-30T12:09:02.017Z,14.80
2023-03-30T12:11:41.565Z,14.80
2023-03-30T12:14:32.530Z,14.70
2023-03-30T12:17:12.249Z,14.60
2023-03-30T12:19:56.143Z,14.20
2023-03-30T12:22:29.122Z,13.90
2023-03-30T12:25:15.650Z,13.80
2023-03-30T12:28:03.986Z,14.00
2023-03-30T12:30:43.895Z,14.60
2023-03-30T12:33:13.430Z,15.00
2023-03-30T12:35:51.991Z,15.10
2023-03-30T12:38:23.584Z,15.10
2023-03-30T12:41:14.582Z,15.10
2023-03-30T12:44:09.128Z,15.40
2023-03-30T12:46:54.081Z,15.30
2023-03-30T12:49:50.003Z,14.90
2023-03-30T12:52:43.408Z,14.40
2023-03-30T12:55:33.099Z,14.00
2023-03-30T12:58:21.024Z,13.80
2023-03-30T13:01:16.561Z,13.70
2023-03-30T13:03:54.250Z,13.60
2023-03-30T13:06:33.812Z,13.60
2023-03-30T13:09:04.327Z,13.50
2023-03-30T13:12:05.246Z,13.90
2023-03-30T13:14:39.276Z,14.70
2023-03-30T13:17:10.508Z,15.20
2023-03-30T13:19:37.354Z,15.50
2023-03-30T13:22:13.176Z,15.70
2023-03-30T13:24:41.140Z,16.00
2023-03-30T13:27:13.682Z,16.00
2023-03-30T13:29:58.396Z,16.20
2023-03-30T13:32:59.098Z,16.20
2023-03-30T13:35:41.697Z,16.20
2023-03-30T13:38:23.278Z,16.00
2023-03-30T13:41:14.859Z,16.10
2023-03-30T13:43:44.619Z,16.20
2023-03-30T13:46:38.321Z,16.20
2023-03-30T13:49:34.059Z,16.20
2023-03-30T13:52:10.416Z,16.20
2023-03-30T13:54:40.676Z,16.90
2023-03-30T13:57:11.750Z,17.10
2023-03-30T13:59:51.809Z,17.10
2023-03-30T14:02:21.060Z,16.80
2023-03-30T14:04:49.428Z,16.50
2023-03-30T14:07:16.994Z,16.20
2023-03-30T14:10:01.565Z,15.70
2023-03-30T14:12:28.421Z,15.50
2023-03-30T14:14:55.419Z,15.50
2023-03-30T14:17:24.296Z,15.30
2023-03-30T14:19:57.161Z,15.30
2023-03-30T14:22:28.135Z,15.60
2023-03-30T14:25:04.914Z,15.70
2023-03-30T14:27:38.871Z,15.40
2023-03-30T14:30:21.564Z,15.20
2023-03-30T14:35:18.458Z,14.90
2023-03-30T14:37:51.676Z,14.60
2023-03-30T14:40:21.921Z,14.50
2023-03-30T14:42:48.886Z,14.60
2023-03-30T14:45:18.534Z,14.60
2023-03-30T14:47:47.778Z,14.60
2023-03-30T14:50:16.844Z,14.70
2023-03-30T14:52:46.639Z,14.80
2023-03-30T14:55:20.671Z,15.10
2023-03-30T14:57:48.726Z,15.10
2023-03-30T15:00:22.644Z,15.20
2023-03-30T15:02:56.790Z,15.10
2023-03-30T15:05:28.138Z,15.10
2023-03-30T15:07:55.178Z,14.90
2023-03-30T15:11:06.016Z,14.80
2023-03-30T15:16:01.108Z,14.80
2023-03-30T15:18:30.385Z,14.70
2023-03-30T15:20:59.465Z,14.50
2023-03-30T15:23:38.082Z,14.50
2023-03-30T15:26:07.150Z,14.50
2023-03-30T15:28:46.802Z,14.40
2023-03-30T15:31:15.152Z,14.10
2023-03-30T15:33:50.470Z,14.30
2023-03-30T15:36:23.454Z,14.20
2023-03-30T15:38:56.477Z,14.20
2023-03-30T15:41:43.235Z,14.20
2023-03-30T15:44:12.439Z,14.00
2023-03-30T15:46:40.490Z,13.80
2023-03-30T15:49:09.452Z,13.50
2023-03-30T15:51:41.413Z,13.40
2023-03-30T15:54:38.488Z,13.20
2023-03-30T15:57:13.035Z,13.20
2023-03-30T15:59:48.861Z,13.10
2023-03-30T16:02:16.868Z,12.90
2023-03-30T16:04:43.807Z,12.90
2023-03-30T16:07:19.836Z,12.90
2023-03-30T16:09:46.877Z,12.90
2023-03-30T16:12:18.044Z,12.80
2023-03-30T16:14:44.833Z,12.80
2023-03-30T16:17:13.163Z,12.70
2023-03-30T16:19:41.254Z,12.70
2023-03-30T16:22:09.497Z,12.70
2023-03-30T16:24:36.841Z,12.70
2023-03-30T16:27:05.110Z,12.70
2023-03-30T16:29:32.943Z,12.80
2023-03-30T16:32:00.033Z,12.90
2023-03-30T16:34:26.889Z,13.10
2023-03-30T16:36:53.891Z,13.20
2023-03-30T16:39:26.598Z,13.40
2023-03-30T16:41:54.716Z,13.40
2023-03-30T16:44:23.099Z,13.40
2023-03-30T16:46:51.365Z,13.40
2023-03-30T16:49:24.568Z,13.40
2023-03-30T16:51:54.558Z,13.40
2023-03-30T16:54:32.006Z,13.30
2023-03-30T16:57:00.973Z,13.30
2023-03-30T16:59:30.557Z,13.30
2023-03-30T17:01:58.678Z,13.30
2023-03-30T17:04:25.965Z,13.30
2023-03-30T17:06:54.548Z,13.20
2023-03-30T17:11:48.980Z,13.20
2023-03-30T17:14:16.337Z,13.20
2023-03-30T17:16:43.539Z,13.20
2023-03-30T17:19:14.193Z,13.20
2023-03-30T17:21:43.433Z,13.20
2023-03-30T17:24:11.340Z,13.20
2023-03-30T17:26:39.195Z,13.10
2023-03-30T17:29:06.105Z,13.10
2023-03-30T17:31:33.044Z,13.10
2023-03-30T17:33:59.967Z,13.00
2023-03-30T17:36:28.644Z,12.90
2023-03-30T17:38:55.518Z,12.80
2023-03-30T17:41:22.273Z,12.70
2023-03-30T17:43:49.272Z,12.60
2023-03-30T17:46:18.724Z,12.60
2023-03-30T17:51:12.873Z,12.40
2023-03-30T17:53:39.722Z,12.40
2023-03-30T17:56:06.676Z,12.30
2023-03-30T17:58:35.874Z,12.20
2023-03-30T18:01:05.625Z,12.20
2023-03-30T18:03:32.588Z,12.10
2023-03-30T18:06:01.079Z,12.00
2023-03-30T18:08:28.976Z,11.90
2023-03-30T18:10:57.872Z,11.90
2023-03-30T18:13:26.614Z,11.80
2023-03-30T18:15:55.231Z,11.70
2023-03-30T18:18:25.964Z,11.70
2023-03-30T18:20:57.747Z,11.70
2023-03-30T18:23:25.130Z,11.70
2023-03-30T18:25:52.304Z,11.70
2023-03-30T18:28:24.176Z,11.70
2023-03-30T18:30:53.232Z,11.70
2023-03-30T18:33:20.399Z,11.70
2023-03-30T18:35:49.565Z,11.70
2023-03-30T18:38:24.755Z,11.80
2023-03-30T18:40:57.901Z,11.70
2023-03-30T18:43:26.568Z,11.60
2023-03-30T18:46:02.457Z,11.60
2023-03-30T18:48:29.655Z,11.60
2023-03-30T18:50:57.350Z,11.50
2023-03-30T18:53:27.073Z,11.50
2023-03-30T18:56:00.701Z,11.60
2023-03-30T18:58:30.049Z,11.60
2023-03-30T19:00:57.051Z,11.60
2023-03-30T19:03:25.218Z,11.60
2023-03-30T19:05:52.054Z,11.50
2023-03-30T19:08:24.017Z,11.50
2023-03-30T19:10:53.055Z,11.50
2023-03-30T19:13:21.706Z,11.50
2023-03-30T19:15:50.212Z,11.40
2023-03-30T19:18:17.856Z,11.40
2023-03-30T19:20:45.107Z,11.40
2023-03-30T19:23:14.193Z,11.40
2023-03-30T19:25:41.609Z,11.50
2023-03-30T19:28:09.227Z,11.50
2023-03-30T19:30:39.285Z,11.50
2023-03-30T19:33:09.730Z,11.50
2023-03-30T19:35:38.970Z,11.50
2023-03-30T19:38:05.954Z,11.50
2023-03-30T19:40:32.718Z,11.50
2023-03-30T19:42:59.403Z,11.50
2023-03-30T19:45:26.488Z,11.50
2023-03-30T19:47:53.323Z,11.50
2023-03-30T19:50:23.244Z,11.50
2023-03-30T19:52:51.013Z,11.50
2023-03-30T19:55:19.180Z,11.50
2023-03-30T19:57:46.068Z,11.50
2023-03-30T20:00:15.865Z,11.60
2023-03-30T20:02:48.379Z,11.50
2023-03-30T20:05:16.178Z,11.50
2023-03-30T20:07:44.409Z,11.40
2023-03-30T20:10:15.597Z,11.40
2023-03-30T20:12:42.790Z,11.40
2023-03-30T20:15:10.087Z,11.40
2023-03-30T20:17:38.324Z,11.40
2023-03-30T20:20:08.612Z,11.50
2023-03-30T20:22:36.716Z,11.50
2023-03-30T20:25:05.889Z,11.50
2023-03-30T20:27:33.728Z,11.50
2023-03-30T20:30:01.021Z,11.50
2023-03-30T20:32:27.974Z,11.40
2023-03-30T20:37:22.011Z,11.30
2023-03-30T20:39:51.778Z,11.30
2023-03-30T20:42:25.831Z,11.30
2023-03-30T20:44:53.466Z,11.30
2023-03-30T20:47:23.250Z,11.20
2023-03-30T20:49:50.201Z,11.20
2023-03-30T20:52:17.154Z,11.20
2023-03-30T20:54:44.723Z,11.20
2023-03-30T20:57:12.018Z,11.20
2023-03-30T20:59:39.519Z,11.30
2023-03-30T21:02:07.005Z,11.30
2023-03-30T21:04:34.307Z,11.30
2023-03-30T21:07:01.453Z,11.40
2023-03-30T21:09:28.747Z,11.30
2023-03-30T21:11:55.489Z,11.30
2023-03-30T21:14:24.060Z,11.40
2023-03-30T21:16:50.955Z,11.40
2023-03-30T21:21:44.955Z,11.40
2023-03-30T21:24:12.693Z,11.40
2023-03-30T21:26:40.375Z,11.40
2023-03-30T21:29:07.146Z,11.40
2023-03-30T21:31:33.932Z,11.40
2023-03-30T21:34:00.829Z,11.40
2023-03-30T21:36:27.672Z,11.40
2023-03-30T21:38:56.245Z,11.50
2023-03-30T21:41:24.234Z,11.40
2023-03-30T21:43:51.070Z,11.40
2023-03-30T21:46:20.915Z,11.40
2023-03-30T21:48:50.575Z,11.30
2023-03-30T21:51:25.809Z,11.30
2023-03-30T21:53:53.372Z,11.30
2023-03-30T21:56:23.036Z,11.30
2023-03-30T21:58:50.239Z,11.30
2023-03-30T22:01:17.963Z,11.20
2023-03-30T22:03:45.858Z,11.30
2023-03-30T22:06:14.514Z,11.20
2023-03-30T22:08:41.957Z,11.20
2023-03-30T22:11:12.758Z,11.20
2023-03-30T22:13:39.625Z,11.10
2023-03-30T22:16:16.321Z,11.10
2023-03-30T22:18:44.405Z,11.10
2023-03-30T22:21:25.759Z,11.10
2023-03-30T22:23:54.738Z,11.10
2023-03-30T22:26:22.281Z,11.10
2023-03-30T22:28:49.072Z,11.10
2023-03-30T22:31:15.871Z,11.10
2023-03-30T22:33:42.871Z,11.10
2023-03-30T22:36:18.893Z,11.10
2023-03-30T22:38:46.853Z,11.10
2023-03-30T22:41:14.140Z,11.10
2023-03-30T22:43:41.166Z,11.10
2023-03-30T22:46:08.171Z,11.10
2023-03-30T22:48:35.656Z,11.20
2023-03-30T22:51:08.178Z,11.20
2023-03-30T22:53:35.302Z,11.20
2023-03-30T22:56:02.082Z,11.20
2023-03-30T22:58:28.741Z,11.20
2023-03-30T23:01:02.581Z,11.20
2023-03-30T23:03:29.554Z,11.30
2023-03-30T23:06:00.811Z,11.30
2023-03-30T23:08:29.625Z,11.20
2023-03-30T23:10:57.349Z,11.20
2023-03-30T23:13:24.378Z,11.20
2023-03-30T23:15:51.125Z,11.10
2023-03-30T23:18:17.822Z,11.10
2023-03-30T23:20:46.648Z,11.10
2023-03-30T23:23:14.754Z,11.10
2023-03-30T23:25:51.402Z,11.10
2023-03-30T23:28:18.530Z,11.10
2023-03-30T23:30:45.411Z,11.10
2023-03-30T23:33:13.430Z,11.10
2023-03-30T23:35:41.852Z,11.10
2023-03-30T23:38:10.145Z,11.10
2023-03-30T23:40:36.874Z,11.10
2023-03-30T23:43:03.624Z,11.10
2023-03-30T23:45:30.406Z,11.10
2023-03-30T23:47:57.183Z,11.20
2023-03-30T23:50:23.932Z,11.20
2023-03-30T23:55:18.479Z,11.20
2023-03-30T23:57:45.905Z,11.10
